Ashotsk, Armenia

5:27 PM AMT on October 24, 2014 (GMT +0400)
SHIRAK | Change Station
CLOSE
Current Station
Airport
Location: SHIRAK,
Elevation: 5000 ft
Nearby Weather Stations

Elev 5000 ft 40.75 °N, 43.86 °E | Updated 27 minutes ago

Scattered Clouds
Scattered Clouds
63 °F
Feels Like 63 °F
N
9
Wind Variable Wind from South

Today
High -- | Low -- °F
--% Chance of Precip.
Yesterday
High -- | Low -- °F
Precip. -- in
7:25 AM 6:11 PM
New Moon, 0% visible
Pressure 30.06 in
Visibility 6.2 miles
Clouds Few 5000 ft
Scattered Clouds 10000 ft
Dew Point 34 °F
Humidity 34%
Rainfall 0.00 in
Snow Depth Not available.
UV 0 out of 12
Pollen Not available.
Air Quality Not available.
Flu Activity Not available.
METAR UDSG 241300Z 19004MPS 9999 FEW050 SCT100 17/01 Q1018 R02/CLRD70 NOSIG

More Conditions Fewer Conditions

Pressure 30.06 in
Visibility 6.2 miles
Clouds Few 5000 ft
Scattered Clouds 10000 ft
Dew Point 34 °F
Humidity 34%
Rainfall 0.00 in
Snow Depth Not available.
UV 0 out of 12
Pollen Not available.
Air Quality Not available.
Flu Activity Not available.
METAR UDSG 241300Z 19004MPS 9999 FEW050 SCT100 17/01 Q1018 R02/CLRD70 NOSIG

More Conditions Fewer Conditions

10-Day Weather Forecast

Almanac

Astronomy

Oct. 24, 2014 Rise Set
Actual Time 7:25 AM AMT 6:11 PM AMT
Civil Twilight 6:57 AM AMT 6:39 PM AMT
Nautical Twilight 6:25 AM AMT 7:11 PM AMT
Astronomical Twilight 5:53 AM AMT 7:43 PM AMT
Moon 7:43 AM AMT 6:36 PM AMT
Length of Visible Light 11h 41m
Length of Day
10h 45m
Tomorrow will be 2m 31s shorter.
New Moon, 0% of the Moon is Illuminated
Today
New Moon
Oct 30
First Quarter
Nov 6
Full
Nov 14
Last Quarter
Nov 22
New

Yesterday's Extremes

Country Highs Country Lows

Community

WunderPhotos

Upload Photos

1,764,549 photos uploaded!

WunderBlogs® & News

Nearby

Snow Depth

Not available.

Earthquake Activity

City Distance Mag. Time & Date
No recent earthquake activity has been reported nearby.
Minimum magnitude displayed is 2.5.

Coastal Water Temperatures

Place Temperature
No Stations Reporting

Nearby Weather Stations